Accueil
METAR-TAF:

METAR-TAF

Aéroports :

Aéroport Sultan Ismail Petra

Kota Bharu, Malaisie

latitude: 06-10N, longitude: 102-17E, altitude: 5 m

Observation

Le bulletin a été fait il y a 36 minutes, à 03:00 UTC
Vent 5 kt de sud/sud-ouest, variant entre sud-est et ouest/sud-ouest
Température 29°C
Humidité 66%
Pression 1008 hPa
Visibilité 10 km ou plus
Quelques nuages à une hauteur de 2000 ft

METAR: WMKC 220300Z 21005KT 140V250 9999 FEW020 29/22 Q1008

Heure: 11:36 (03:36 UTC)

Prévision

Le bulletin a été fait il y a 4 heures et 36 minutes, à 23:00 UTC
Prévision valable du 22 à 00 UTC au 23 à 00 UTC
Vent 10 kt de ouest
Visibilité 10 km ou plus
Quelques nuages à une hauteur de 2000 ft

TAF: WMKC 212300Z 2200/2300 26010KT 9999 FEW020

Observations et prévisions météorologiques de plus de 4000 aéroports (messages METAR et TAF).

Les stations disponibles sont représentées par des disques jaunes et rouges sur la carte.

Passer la souris dessus pour voir le nom de la station.

Cliquer dessus pour voir les observations et prévisions météorologiques.

Pour changer de carte: cliquez sur les boutons verts avec une croix noire pour zoomer, sur le bouton vert avec un tiret pour effectuer un zoom arrière, ou sur les flèches vertes pour les cartes adjacentes.


METAR-TAF: